Flight Track Log - Related Links

Times and Time Zones

All times are in EST time to prevent confusion due to time zone crossing. See the UAL1433 flight status page for this flight to view local times or setup timezone preferences in your user account.

Time Position Orientation Groundspeed Altitude Reporting Facility
EST Latitude Longitude Course Direction KTS MPH feet Rate Location/Type
Sat 02:20:00 PM 12.5774 -86.3103 342° North  Level FlightAware Approximate
Sat 02:21:00 PM 12.6863 -86.3459 342° North  Level FlightAware Approximate
Sat 02:22:00 PM 12.7953 -86.3816 342° North  Level FlightAware Approximate
Sat 02:23:00 PM 12.9043 -86.4172 342° North  Level FlightAware Approximate
Sat 02:24:00 PM 13.0132 -86.4529 342° North  Level FlightAware Approximate
Sat 02:25:00 PM 13.1222 -86.4887 342° North  Level FlightAware Approximate
Sat 02:26:00 PM 13.2311 -86.5244 342° North  Level FlightAware Approximate
Sat 02:27:00 PM 13.3400 -86.5602 342° North  Level FlightAware Approximate
Sat 02:28:00 PM 13.4489 -86.5960 342° North  Level FlightAware Approximate
Sat 02:29:00 PM 13.5579 -86.6319 342° North  Level FlightAware Approximate
Sat 02:30:00 PM 13.6668 -86.6678 342° North  Level FlightAware Approximate
Sat 02:31:00 PM 13.7757 -86.7037 342° North  Level FlightAware Approximate
Sat 02:32:00 PM 13.8795 -86.7532 342° North  Level Estimated
Sat 02:33:00 PM 13.9885 -86.7889 342° North  Level FlightAware Approximate
Sat 02:34:00 PM 14.0975 -86.8247 342° North  Level FlightAware Approximate
Sat 02:35:00 PM 14.2064 -86.8606 342° North  Level FlightAware Approximate
Sat 02:36:00 PM 14.3154 -86.8964 342° North  Level FlightAware Approximate
Sat 02:37:00 PM 14.4243 -86.9323 342° North  Level FlightAware Approximate
Sat 02:38:00 PM 14.5333 -86.9683 342° North  Level FlightAware Approximate
Sat 02:39:00 PM 14.6422 -87.0043 342° North  Level FlightAware Approximate
Sat 02:40:00 PM 14.7512 -87.0403 342° North  Level FlightAware Approximate
Sat 02:41:00 PM 14.8601 -87.0763 342° North  Level FlightAware Approximate
Sat 02:42:00 PM 14.9690 -87.1124 342° North  Level FlightAware Approximate
Sat 02:43:00 PM 15.0779 -87.1485 342° North  Level FlightAware Approximate
Sat 02:44:00 PM 15.1868 -87.1847 342° North  Level FlightAware Approximate
Sat 02:45:00 PM 15.2901 -87.2357 341° North  Level Estimated
Sat 02:46:00 PM 15.3986 -87.2730 342° North  Level FlightAware Approximate
Sat 02:47:00 PM 15.5072 -87.3103 342° North  Level FlightAware Approximate
Sat 02:48:00 PM 15.6176 -87.3483 342° North  Level FlightAware Approximate
Sat 02:49:00 PM 15.7280 -87.3863 342° North  Level FlightAware Approximate
Sat 02:50:00 PM 15.8384 -87.4243 342° North  Level FlightAware Approximate
Sat 02:51:00 PM 15.9488 -87.4624 342° North  Level FlightAware Approximate
Sat 02:52:00 PM 16.0592 -87.5006 342° North  Level FlightAware Approximate
Sat 02:53:00 PM 16.1696 -87.5387 342° North  Level FlightAware Approximate
Sat 02:54:00 PM 16.2800 -87.5770 342° North  Level FlightAware Approximate
Sat 02:55:00 PM 16.3904 -87.6152 342° North  Level FlightAware Approximate
Sat 02:56:00 PM 16.5007 -87.6535 342° North  Level FlightAware Approximate
Sat 02:57:00 PM 16.6111 -87.6919 342° North  Level FlightAware Approximate
Sat 02:58:00 PM 16.7214 -87.7303 342° North  Level FlightAware Approximate
Sat 02:59:00 PM 16.8318 -87.7687 342° North  Level FlightAware Approximate
Sat 03:00:00 PM 16.9421 -87.8072 342° North  Level FlightAware Approximate
Sat 03:01:00 PM 17.0524 -87.8457 342° North  Level FlightAware Approximate
Sat 03:02:00 PM 17.1628 -87.8843 342° North  Level FlightAware Approximate
Sat 03:03:00 PM 17.2731 -87.9230 342° North  Level FlightAware Approximate
Sat 03:04:00 PM 17.3834 -87.9616 342° North  Level FlightAware Approximate
Sat 03:05:00 PM 17.4937 -88.0003 341° North  Level FlightAware Approximate
Sat 03:06:00 PM 17.6040 -88.0391 341° North  Level FlightAware Approximate
Sat 03:07:00 PM 17.7142 -88.0779 341° North  Level FlightAware Approximate
Sat 03:08:00 PM 17.8245 -88.1168 341° North  Level FlightAware Approximate
Sat 03:09:00 PM 17.9348 -88.1557 341° North  Level FlightAware Approximate
Sat 03:10:00 PM 18.0450 -88.1946 341° North  Level FlightAware Approximate
Sat 03:11:00 PM 18.1553 -88.2336 341° North  Level FlightAware Approximate
Sat 03:12:00 PM 18.2586 -88.2899 343° North  Level Estimated
Sat 03:13:00 PM 18.3705 -88.3233 344° North  Level FlightAware Approximate
Sat 03:14:00 PM 18.4824 -88.3567 344° North  Level FlightAware Approximate
Sat 03:15:00 PM 18.5944 -88.3901 344° North  Level FlightAware Approximate
Sat 03:16:00 PM 18.6973 -88.4472 341° North  Level Estimated
Sat 03:17:00 PM 18.8083 -88.4841 343° North  Level FlightAware Approximate
Sat 03:18:00 PM 18.9192 -88.5210 343° North  Level FlightAware Approximate
Sat 03:19:00 PM 19.0302 -88.5580 343° North  Level FlightAware Approximate
Sat 03:20:00 PM 19.1411 -88.5950 343° North  Level FlightAware Approximate
Sat 03:21:00 PM 19.2520 -88.6320 342° North  Level FlightAware Approximate
Sat 03:22:00 PM 19.3630 -88.6692 342° North  Level FlightAware Approximate
Sat 03:23:00 PM 19.4739 -88.7063 342° North  Level FlightAware Approximate
Sat 03:24:00 PM 19.5848 -88.7435 342° North  Level FlightAware Approximate
Sat 03:25:00 PM 19.6957 -88.7808 342° North  Level FlightAware Approximate
Sat 03:26:00 PM 19.7977 -88.8402 341° North  Level Estimated
Sat 03:27:00 PM 19.9082 -88.8788 342° North  Level FlightAware Approximate
Sat 03:28:00 PM 20.0187 -88.9174 342° North  Level FlightAware Approximate
Sat 03:29:00 PM 20.1292 -88.9560 342° North  Level FlightAware Approximate
Sat 03:30:00 PM 20.2397 -88.9947 342° North  Level FlightAware Approximate
Sat 03:31:00 PM 20.3502 -89.0335 342° North  Level FlightAware Approximate
Sat 03:32:00 PM 20.4607 -89.0723 342° North  Level FlightAware Approximate
Sat 03:33:00 PM 20.5711 -89.1112 342° North  Level FlightAware Approximate
Sat 03:34:00 PM 20.6816 -89.1501 342° North  Level FlightAware Approximate
Sat 03:35:00 PM 20.7921 -89.1891 342° North  Level FlightAware Approximate
Sat 03:36:00 PM 20.9025 -89.2282 342° North  Level FlightAware Approximate
Sat 03:37:00 PM 21.0130 -89.2673 342° North  Level FlightAware Approximate
Sat 03:38:00 PM 21.1234 -89.3064 342° North  Level FlightAware Approximate
Sat 03:39:00 PM 21.2338 -89.3456 342° North  Level FlightAware Approximate
Sat 03:40:00 PM 21.3442 -89.3849 342° North  Level FlightAware Approximate
Sat 03:41:00 PM 21.4443 -89.4486 341° North  Level Estimated
Sat 03:42:00 PM 21.5553 -89.4861 343° North  Level FlightAware Approximate
Sat 03:43:00 PM 21.6662 -89.5237 343° North  Level FlightAware Approximate
Sat 03:44:00 PM 21.7772 -89.5613 343° North  Level FlightAware Approximate
Sat 03:45:00 PM 21.8881 -89.5990 343° North  Level FlightAware Approximate
Sat 03:46:00 PM 21.9990 -89.6367 342° North  Level FlightAware Approximate
Sat 03:47:00 PM 22.0982 -89.7023 358° North  Level Estimated
Sat 03:48:00 PM 22.2144 -89.7086 357° North  Level FlightAware Approximate
Sat 03:49:00 PM 22.3305 -89.7150 357° North  Level FlightAware Approximate
Sat 03:50:00 PM 22.4289 -89.7820 357° North  Level Estimated
Sat 03:51:00 PM 22.5452 -89.7834 359° North  Level FlightAware Approximate
Sat 03:52:00 PM 22.6616 -89.7849 359° North  Level FlightAware Approximate
Sat 03:53:00 PM 22.7779 -89.7863 359° North  Level FlightAware Approximate
Sat 03:54:00 PM 22.8942 -89.7877 359° North  Level FlightAware Approximate
Sat 03:55:00 PM 23.0105 -89.7891 359° North  Level FlightAware Approximate
Sat 03:56:00 PM 23.1268 -89.7905 359° North  Level FlightAware Approximate
Sat 03:57:00 PM 23.2431 -89.7919 359° North  Level FlightAware Approximate
Sat 03:58:00 PM 23.3594 -89.7934 359° North  Level FlightAware Approximate
Sat 03:59:00 PM 23.4757 -89.7948 359° North  Level FlightAware Approximate
Sat 04:00:00 PM 23.5920 -89.7962 359° North  Level FlightAware Approximate
Sat 04:01:00 PM 23.6855 -89.8718 357° North  Level Estimated
Sat 04:02:00 PM 23.8017 -89.8662 North  Level FlightAware Approximate
Sat 04:03:00 PM 23.9179 -89.8607 North  Level FlightAware Approximate
Sat 04:04:00 PM 24.0341 -89.8551 North  Level FlightAware Approximate
Sat 04:05:00 PM 24.1503 -89.8494 North  Level FlightAware Approximate
Sat 04:06:00 PM 24.2410 -89.9293 325° Northwest  Level Estimated
Sat 04:07:00 PM 24.3419 -89.9928 330° Northwest  Level FlightAware Approximate
Sat 04:08:00 PM 24.4427 -90.0565 330° Northwest  Level FlightAware Approximate
Sat 04:09:00 PM 24.5436 -90.1202 330° Northwest  Level FlightAware Approximate
Sat 04:10:00 PM 24.6444 -90.1841 330° Northwest  Level FlightAware Approximate
Sat 04:11:00 PM 24.7451 -90.2480 330° Northwest  Level FlightAware Approximate
Sat 04:12:00 PM 24.8459 -90.3121 330° Northwest  Level FlightAware Approximate
Sat 04:13:00 PM 24.9466 -90.3762 330° Northwest  Level FlightAware Approximate
Sat 04:14:00 PM 25.0473 -90.4405 330° Northwest  Level FlightAware Approximate
Sat 04:15:00 PM 25.1479 -90.5049 330° Northwest  Level FlightAware Approximate
Sat 04:16:00 PM 25.2486 -90.5693 330° Northwest  Level FlightAware Approximate
Sat 04:17:00 PM 25.3492 -90.6339 330° Northwest  Level FlightAware Approximate
Sat 04:18:00 PM 25.4492 -90.6982 330° Northwest  Level FlightAware Approximate
Sat 04:19:00 PM 25.5492 -90.7626 330° Northwest  Level FlightAware Approximate
Sat 04:20:00 PM 25.6491 -90.8272 330° Northwest  Level FlightAware Approximate
Sat 04:21:00 PM 25.7490 -90.8918 330° Northwest  Level FlightAware Approximate
Sat 04:22:00 PM 25.8489 -90.9566 330° Northwest  Level FlightAware Approximate
Sat 04:23:00 PM 25.9488 -91.0214 330° Northwest  Level FlightAware Approximate
Sat 04:24:00 PM 26.0486 -91.0864 330° Northwest  Level FlightAware Approximate
Sat 04:25:00 PM 26.1484 -91.1515 330° Northwest  Level FlightAware Approximate
Sat 04:26:00 PM 26.2330 -91.2394 325° Northwest  Level Estimated
Sat 04:27:00 PM 26.3295 -91.3105 327° Northwest  Level FlightAware Approximate
Sat 04:28:00 PM 26.4260 -91.3817 327° Northwest  Level FlightAware Approximate
Sat 04:28:15 PM 26.9531 -91.7792 326° Northwest 396 456 36,000  Level Houston Center
Sat 04:29:00 PM 26.5224 -91.4530 327° Northwest  Level FlightAware Approximate
Sat 04:29:17 PM 27.0475 -91.8525 325° Northwest 409 471 36,000  Level Houston Center
Sat 04:30:00 PM 26.6189 -91.5245 326° Northwest  Level FlightAware Approximate
Sat 04:30:19 PM 27.1411 -91.9275 325° Northwest 411 473 36,000  Level Houston Center
Sat 04:31:00 PM 26.7152 -91.5960 326° Northwest  Level FlightAware Approximate
Sat 04:31:21 PM 27.2319 -92.0036 323° Northwest 410 472 35,900  Level Houston Center
Sat 04:32:00 PM 26.8116 -91.6677 326° Northwest  Level FlightAware Approximate
Sat 04:32:23 PM 27.3336 -92.1003 320° Northwest 402 463 36,000  Level Houston Center
Sat 04:33:00 PM 26.9078 -91.7396 326° Northwest  Level FlightAware Approximate
Sat 04:33:25 PM 27.4161 -92.1828 318° Northwest 397 457 36,000  Level Houston Center
Sat 04:34:27 PM 27.5003 -92.2642 319° Northwest 397 457 36,000 -48 Level Houston Center
Sat 04:35:29 PM 27.5831 -92.3508 317° Northwest 402 463 35,900 -48 Descending Houston Center
Sat 04:36:31 PM 27.6664 -92.4317 319° Northwest 397 457 35,900 48 Level Houston Center
Sat 04:37:33 PM 27.7453 -92.5136 317° Northwest 389 448 36,000  Climbing Houston Center
Sat 04:38:35 PM 27.8414 -92.6086 319° Northwest 384 442 35,900  Descending Houston Center
Sat 04:39:37 PM 27.9208 -92.6856 319° Northwest 379 436 36,000  Climbing Houston Center
Sat 04:40:39 PM 27.9978 -92.7647 318° Northwest 374 430 35,900  Descending Houston Center
Sat 04:41:41 PM 28.0750 -92.8428 318° Northwest 372 428 36,000 48 Climbing Houston Center
Sat 04:42:43 PM 28.1525 -92.9214 318° Northwest 372 428 36,000 -48 Level Houston Center
Sat 04:43:45 PM 28.2297 -92.9983 319° Northwest 371 427 35,900  Descending Houston Center
Sat 04:44:47 PM 28.3219 -93.0917 318° Northwest 370 426 36,000 48 Climbing Houston Center
Sat 04:45:49 PM 28.4072 -93.1622 324° Northwest 381 438 36,000  Level Houston Center
Sat 04:46:51 PM 28.5208 -93.1661 358° North 411 473 36,000 -194 Level Houston Center
Sat 04:47:53 PM 28.6386 -93.1469 North 424 488 35,600 -677 Descending Houston Center
Sat 04:48:55 PM 28.7550 -93.1281 North 424 488 34,600 -919 Descending Houston Center
Sat 04:49:57 PM 28.8703 -93.1117 North 418 481 33,700 -1,016 Descending Houston Center
Sat 04:50:59 PM 28.9808 -93.1619 338° Northwest 378 435 32,500 -1,113 Descending Houston Center
Sat 04:52:01 PM 29.0456 -93.2511 310° West 367 422 31,400 -1,016 Descending Houston Center
Sat 04:53:03 PM 29.1136 -93.3408 311° West 372 428 30,400 -919 Descending Houston Center
Sat 04:54:05 PM 29.2033 -93.4092 326° Northwest 394 453 29,500 -919 Descending Houston Center
Sat 04:55:07 PM 29.2981 -93.4694 331° Northwest 391 450 28,500 -960 Descending Houston Center
Sat 04:56:10 PM 29.3617 -93.5586 309° West 373 429 27,500 -1,344 Descending Houston Center
Sat 04:57:12 PM 29.4175 -93.6783 298° West 355 409 25,700 -1,839 Descending Houston Center
Sat 04:58:14 PM 29.4614 -93.7719 298° West 339 390 23,700 -1,887 Descending Houston Center
Sat 04:59:16 PM 29.5042 -93.8636 298° West 326 375 21,800 -1,790 Descending Houston Center
Sat 05:00:18 PM 29.5211 -93.9606 281° West 319 367 20,000 -1,694 Descending Houston Center
Sat 05:01:20 PM 29.5239 -94.0614 272° West 315 362 18,300 -1,645 Descending Houston Center
Sat 05:02:22 PM 29.5278 -94.1561 273° West 302 348 16,600 -1,941 Descending Houston Center
Sat 05:02:28 PM 29.5267 -94.1850 267° West 300 345 16,100 -2,600 Descending Houston Center
Sat 05:02:52 PM 29.5286 -94.2256 273° West 307 353 15,300 -1,714 Descending Houston Center
Sat 05:03:24 PM 29.5311 -94.2586 275° West 310 357 14,500 -2,066 Descending Houston Center
Sat 05:03:53 PM 29.5325 -94.3261 271° West 318 366 13,200 -1,935 Descending Houston Center
Sat 05:04:26 PM 29.5483 -94.3764 290° West 318 366 12,500 -1,770 Descending Houston Center
Sat 05:04:54 PM 29.5647 -94.4181 294° West 304 350 11,400 -1,645 Descending Houston Center
Sat 05:05:28 PM 29.5836 -94.4619 296° West 303 349 10,800 -968 Descending Houston Center
Sat 05:05:56 PM 29.6006 -94.5047 295° West 285 328 10,400 -857 Descending Houston Center
Sat 05:06:31 PM 29.6219 -94.5369 307° West 279 321 9,900 -1,377 Descending Houston Center
Sat 05:06:57 PM 29.6508 -94.5681 317° Northwest 268 308 9,000 -1,452 Descending Houston Center
Sat 05:07:33 PM 29.6769 -94.5936 320° Northwest 267 307 8,400 -1,082 Descending Houston Center
Sat 05:07:58 PM 29.7047 -94.6239 317° Northwest 261 300 7,900 -968 Descending Houston Center
Sat 05:08:35 PM 29.7297 -94.6497 318° Northwest 263 303 7,400 -1,161 Descending Houston Center
Sat 05:09:00 PM 29.7567 -94.6822 314° West 263 303 6,700 -1,238 Descending Houston Center
Sat 05:09:38 PM 29.7933 -94.7192 319° Northwest 264 304 6,100 -984 Descending Houston Center
Sat 05:10:01 PM 29.8150 -94.7422 317° Northwest 261 300 5,700 -984 Descending Houston Center
Sat 05:10:39 PM 29.8453 -94.7739 318° Northwest 257 296 5,100 -885 Descending Houston Center
Sat 05:11:02 PM 29.8664 -94.7983 315° West 256 295 4,800 -774 Descending Houston Center
Sat 05:11:41 PM 29.8964 -94.8297 318° Northwest 255 293 4,300 -787 Descending Houston Center
Sat 05:12:03 PM 29.9181 -94.8544 315° West 254 292 4,000 -290 Descending Houston Center
Sat 05:12:43 PM 29.9356 -94.8931 298° West 244 281 4,000 -98 Level Houston Center
Sat 05:13:04 PM 29.9522 -94.9250 301° West 234 269 3,900 -677 Descending Houston Center
Sat 05:13:45 PM 29.9658 -94.9558 297° West 230 265 3,300 -968 Descending Houston Center
Sat 05:14:06 PM 29.9772 -94.9894 291° West 212 244 2,900 -968 Descending Houston Center
Sat 05:14:47 PM 29.9781 -95.0306 271° West 210 242 2,300 -885 Descending Houston Center
Sat 05:15:07 PM 29.9764 -95.0500 264° West 184 212 2,000 -290 Descending Houston Center
Sat 05:15:49 PM 29.9772 -95.0889 271° West 194 223 2,000  Level Houston Center
Sat 05:16:08 PM 29.9778 -95.1078 272° West 183 211 2,000  Level Houston Center
Sat 05:16:51 PM 29.9769 -95.1447 269° West 185 213 2,000  Level Houston Center
Sat 05:17:09 PM 29.9767 -95.1656 269° West 169 194 2,000 -97 Level Houston Center
Sat 05:17:53 PM 29.9781 -95.1983 273° West 176 203 1,900 -492 Descending Houston Center
Sat 05:18:10 PM 29.9778 -95.2211 269° West 172 198 1,500 -871 Descending Houston Center
Sat 05:18:55 PM 29.9769 -95.2511 268° West 170 196 1,000 -787 Descending Houston Center
Sat 05:19:11 PM 29.9783 -95.2717 274° West 156 180 700 -677 Descending Houston Center
Sat 05:19:57 PM 29.9767 -95.3047 267° West 164 189 300 -522 Descending Houston Center

Login

Don't have an account? Register now (free) for customized features, flight alerts, and more!